sensor_id;sensor_type;location;lat;lon;timestamp;P1;durP1;ratioP1;P2;durP2;ratioP2
72369;SDS011;60343;-32.030;115.880;2024-02-26T00:00:18;3.15;;;0.70;;
72369;SDS011;60343;-32.030;115.880;2024-02-26T00:02:54;1.55;;;0.50;;
72369;SDS011;60343;-32.030;115.880;2024-02-26T00:05:30;1.45;;;0.50;;
72369;SDS011;60343;-32.030;115.880;2024-02-26T00:08:05;2.13;;;0.40;;
72369;SDS011;60343;-32.030;115.880;2024-02-26T00:10:41;1.40;;;0.50;;
72369;SDS011;60343;-32.030;115.880;2024-02-26T00:13:22;0.95;;;0.40;;
72369;SDS011;60343;-32.030;115.880;2024-02-26T00:15:57;1.08;;;0.40;;
72369;SDS011;60343;-32.030;115.880;2024-02-26T00:18:33;0.93;;;0.35;;
72369;SDS011;60343;-32.030;115.880;2024-02-26T00:21:11;1.10;;;0.40;;
72369;SDS011;60343;-32.030;115.880;2024-02-26T00:23:47;1.55;;;0.50;;
72369;SDS011;60343;-32.030;115.880;2024-02-26T00:26:23;1.23;;;0.47;;
72369;SDS011;60343;-32.030;115.880;2024-02-26T00:29:04;0.98;;;0.32;;
72369;SDS011;60343;-32.030;115.880;2024-02-26T00:31:41;2.63;;;0.60;;
72369;SDS011;60343;-32.030;115.880;2024-02-26T00:34:16;1.98;;;0.50;;
72369;SDS011;60343;-32.030;115.880;2024-02-26T00:36:51;0.88;;;0.40;;
72369;SDS011;60343;-32.030;115.880;2024-02-26T00:39:27;1.65;;;0.50;;
72369;SDS011;60343;-32.030;115.880;2024-02-26T00:42:02;2.08;;;0.50;;
72369;SDS011;60343;-32.030;115.880;2024-02-26T00:44:43;1.88;;;0.40;;
72369;SDS011;60343;-32.030;115.880;2024-02-26T00:47:20;1.63;;;0.60;;
72369;SDS011;60343;-32.030;115.880;2024-02-26T00:49:55;0.90;;;0.50;;
72369;SDS011;60343;-32.030;115.880;2024-02-26T00:52:30;1.35;;;0.40;;
72369;SDS011;60343;-32.030;115.880;2024-02-26T00:55:06;0.70;;;0.45;;
72369;SDS011;60343;-32.030;115.880;2024-02-26T00:57:42;2.25;;;0.50;;
72369;SDS011;60343;-32.030;115.880;2024-02-26T01:00:24;0.93;;;0.40;;
72369;SDS011;60343;-32.030;115.880;2024-02-26T01:02:59;0.88;;;0.43;;
72369;SDS011;60343;-32.030;115.880;2024-02-26T01:05:36;2.13;;;0.65;;
72369;SDS011;60343;-32.030;115.880;2024-02-26T01:08:11;3.97;;;0.60;;
72369;SDS011;60343;-32.030;115.880;2024-02-26T01:10:46;0.95;;;0.50;;
72369;SDS011;60343;-32.030;115.880;2024-02-26T01:13:21;3.70;;;0.60;;
72369;SDS011;60343;-32.030;115.880;2024-02-26T01:16:03;2.05;;;0.60;;
72369;SDS011;60343;-32.030;115.880;2024-02-26T01:18:39;2.47;;;0.55;;
72369;SDS011;60343;-32.030;115.880;2024-02-26T01:21:14;1.83;;;0.50;;
72369;SDS011;60343;-32.030;115.880;2024-02-26T01:23:50;2.22;;;0.50;;
72369;SDS011;60343;-32.030;115.880;2024-02-26T01:26:25;1.60;;;0.50;;
72369;SDS011;60343;-32.030;115.880;2024-02-26T01:29:00;3.00;;;0.70;;
72369;SDS011;60343;-32.030;115.880;2024-02-26T01:31:42;1.30;;;0.50;;
72369;SDS011;60343;-32.030;115.880;2024-02-26T01:34:17;0.60;;;0.35;;
72369;SDS011;60343;-32.030;115.880;2024-02-26T01:36:52;2.00;;;0.50;;
72369;SDS011;60343;-32.030;115.880;2024-02-26T01:39:27;1.48;;;0.60;;
72369;SDS011;60343;-32.030;115.880;2024-02-26T01:42:03;1.58;;;0.60;;
72369;SDS011;60343;-32.030;115.880;2024-02-26T01:44:38;1.42;;;0.70;;
72369;SDS011;60343;-32.030;115.880;2024-02-26T01:47:19;1.30;;;0.63;;
72369;SDS011;60343;-32.030;115.880;2024-02-26T01:49:56;2.10;;;0.70;;
72369;SDS011;60343;-32.030;115.880;2024-02-26T01:52:31;1.23;;;0.70;;
72369;SDS011;60343;-32.030;115.880;2024-02-26T01:55:07;1.45;;;0.85;;
72369;SDS011;60343;-32.030;115.880;2024-02-26T01:57:44;1.20;;;0.68;;
72369;SDS011;60343;-32.030;115.880;2024-02-26T02:00:22;4.05;;;0.80;;
72369;SDS011;60343;-32.030;115.880;2024-02-26T02:03:03;1.30;;;0.90;;
72369;SDS011;60343;-32.030;115.880;2024-02-26T02:05:39;1.85;;;0.95;;
72369;SDS011;60343;-32.030;115.880;2024-02-26T02:08:15;1.77;;;1.00;;
72369;SDS011;60343;-32.030;115.880;2024-02-26T02:10:50;1.27;;;0.82;;
72369;SDS011;60343;-32.030;115.880;2024-02-26T02:13:26;1.92;;;0.93;;
72369;SDS011;60343;-32.030;115.880;2024-02-26T02:16:01;2.28;;;1.00;;
72369;SDS011;60343;-32.030;115.880;2024-02-26T02:18:43;2.70;;;1.05;;
72369;SDS011;60343;-32.030;115.880;2024-02-26T02:21:24;1.50;;;0.85;;
72369;SDS011;60343;-32.030;115.880;2024-02-26T02:23:59;1.85;;;1.02;;
72369;SDS011;60343;-32.030;115.880;2024-02-26T02:26:35;3.03;;;1.25;;
72369;SDS011;60343;-32.030;115.880;2024-02-26T02:29:10;2.08;;;1.20;;
72369;SDS011;60343;-32.030;115.880;2024-02-26T02:31:46;2.53;;;1.23;;
72369;SDS011;60343;-32.030;115.880;2024-02-26T02:34:22;2.83;;;1.20;;
72369;SDS011;60343;-32.030;115.880;2024-02-26T02:37:07;3.28;;;1.20;;
72369;SDS011;60343;-32.030;115.880;2024-02-26T02:39:43;2.70;;;1.20;;
72369;SDS011;60343;-32.030;115.880;2024-02-26T02:42:21;2.80;;;1.13;;
72369;SDS011;60343;-32.030;115.880;2024-02-26T02:44:56;2.60;;;1.40;;
72369;SDS011;60343;-32.030;115.880;2024-02-26T02:47:31;1.75;;;1.10;;
72369;SDS011;60343;-32.030;115.880;2024-02-26T02:50:10;3.13;;;1.27;;
72369;SDS011;60343;-32.030;115.880;2024-02-26T02:52:51;4.60;;;1.60;;
72369;SDS011;60343;-32.030;115.880;2024-02-26T02:55:27;2.25;;;1.30;;
72369;SDS011;60343;-32.030;115.880;2024-02-26T02:58:02;4.95;;;1.30;;
72369;SDS011;60343;-32.030;115.880;2024-02-26T03:00:38;2.75;;;1.20;;
72369;SDS011;60343;-32.030;115.880;2024-02-26T03:03:13;2.58;;;1.20;;
72369;SDS011;60343;-32.030;115.880;2024-02-26T03:05:50;3.05;;;1.35;;
72369;SDS011;60343;-32.030;115.880;2024-02-26T03:08:31;2.53;;;1.42;;
72369;SDS011;60343;-32.030;115.880;2024-02-26T03:11:12;3.28;;;1.45;;
72369;SDS011;60343;-32.030;115.880;2024-02-26T03:13:48;2.10;;;1.35;;
72369;SDS011;60343;-32.030;115.880;2024-02-26T03:16:23;2.83;;;1.42;;
72369;SDS011;60343;-32.030;115.880;2024-02-26T03:18:58;3.22;;;1.33;;
72369;SDS011;60343;-32.030;115.880;2024-02-26T03:21:34;3.58;;;1.60;;
72369;SDS011;60343;-32.030;115.880;2024-02-26T03:24:15;3.67;;;1.55;;
72369;SDS011;60343;-32.030;115.880;2024-02-26T03:26:50;3.50;;;1.45;;
72369;SDS011;60343;-32.030;115.880;2024-02-26T03:29:26;3.13;;;1.30;;
72369;SDS011;60343;-32.030;115.880;2024-02-26T03:32:02;3.53;;;1.33;;
72369;SDS011;60343;-32.030;115.880;2024-02-26T03:34:38;3.05;;;1.60;;
72369;SDS011;60343;-32.030;115.880;2024-02-26T03:37:13;4.05;;;1.60;;
72369;SDS011;60343;-32.030;115.880;2024-02-26T03:39:55;2.97;;;1.50;;
72369;SDS011;60343;-32.030;115.880;2024-02-26T03:42:31;3.53;;;1.33;;
72369;SDS011;60343;-32.030;115.880;2024-02-26T03:45:06;3.17;;;1.52;;
72369;SDS011;60343;-32.030;115.880;2024-02-26T03:47:43;2.50;;;1.20;;
72369;SDS011;60343;-32.030;115.880;2024-02-26T03:50:20;2.78;;;1.38;;
72369;SDS011;60343;-32.030;115.880;2024-02-26T03:52:55;2.70;;;1.33;;
72369;SDS011;60343;-32.030;115.880;2024-02-26T03:55:36;5.05;;;1.45;;
72369;SDS011;60343;-32.030;115.880;2024-02-26T03:58:12;3.47;;;1.60;;
72369;SDS011;60343;-32.030;115.880;2024-02-26T04:00:48;4.13;;;1.33;;
72369;SDS011;60343;-32.030;115.880;2024-02-26T04:03:23;3.40;;;1.85;;
72369;SDS011;60343;-32.030;115.880;2024-02-26T04:05:58;2.60;;;1.35;;
72369;SDS011;60343;-32.030;115.880;2024-02-26T04:08:34;3.13;;;1.50;;
72369;SDS011;60343;-32.030;115.880;2024-02-26T04:11:15;3.50;;;1.60;;
72369;SDS011;60343;-32.030;115.880;2024-02-26T04:13:51;4.35;;;1.52;;
72369;SDS011;60343;-32.030;115.880;2024-02-26T04:16:27;3.75;;;1.55;;
72369;SDS011;60343;-32.030;115.880;2024-02-26T04:19:02;6.20;;;1.50;;
72369;SDS011;60343;-32.030;115.880;2024-02-26T04:21:37;4.40;;;1.60;;
72369;SDS011;60343;-32.030;115.880;2024-02-26T04:24:14;3.95;;;1.45;;
72369;SDS011;60343;-32.030;115.880;2024-02-26T04:26:55;3.75;;;1.60;;
72369;SDS011;60343;-32.030;115.880;2024-02-26T04:29:30;3.08;;;1.35;;
72369;SDS011;60343;-32.030;115.880;2024-02-26T04:32:06;4.35;;;1.60;;
72369;SDS011;60343;-32.030;115.880;2024-02-26T04:34:41;3.78;;;1.40;;
72369;SDS011;60343;-32.030;115.880;2024-02-26T04:37:16;4.53;;;1.55;;
72369;SDS011;60343;-32.030;115.880;2024-02-26T04:39:58;3.70;;;1.65;;
72369;SDS011;60343;-32.030;115.880;2024-02-26T04:42:40;3.63;;;1.40;;
72369;SDS011;60343;-32.030;115.880;2024-02-26T04:45:15;3.85;;;1.60;;
72369;SDS011;60343;-32.030;115.880;2024-02-26T04:47:50;2.80;;;1.63;;
72369;SDS011;60343;-32.030;115.880;2024-02-26T04:50:26;3.35;;;1.40;;
72369;SDS011;60343;-32.030;115.880;2024-02-26T04:53:01;3.08;;;1.55;;
72369;SDS011;60343;-32.030;115.880;2024-02-26T04:55:37;5.10;;;1.60;;
72369;SDS011;60343;-32.030;115.880;2024-02-26T04:58:18;3.53;;;1.60;;
72369;SDS011;60343;-32.030;115.880;2024-02-26T05:00:53;3.00;;;1.65;;
72369;SDS011;60343;-32.030;115.880;2024-02-26T05:03:29;2.72;;;1.50;;
72369;SDS011;60343;-32.030;115.880;2024-02-26T05:06:05;3.85;;;1.63;;
72369;SDS011;60343;-32.030;115.880;2024-02-26T05:08:40;3.00;;;1.27;;
72369;SDS011;60343;-32.030;115.880;2024-02-26T05:11:16;2.97;;;1.15;;
72369;SDS011;60343;-32.030;115.880;2024-02-26T05:13:57;2.42;;;1.17;;
72369;SDS011;60343;-32.030;115.880;2024-02-26T05:16:32;2.63;;;1.08;;
72369;SDS011;60343;-32.030;115.880;2024-02-26T05:19:08;3.00;;;1.17;;
72369;SDS011;60343;-32.030;115.880;2024-02-26T05:21:43;2.45;;;1.17;;
72369;SDS011;60343;-32.030;115.880;2024-02-26T05:24:18;3.53;;;1.00;;
72369;SDS011;60343;-32.030;115.880;2024-02-26T05:26:54;4.55;;;1.23;;
72369;SDS011;60343;-32.030;115.880;2024-02-26T05:29:35;2.53;;;1.17;;
72369;SDS011;60343;-32.030;115.880;2024-02-26T05:32:10;3.15;;;1.40;;
72369;SDS011;60343;-32.030;115.880;2024-02-26T05:34:45;3.60;;;1.20;;
72369;SDS011;60343;-32.030;115.880;2024-02-26T05:37:21;3.10;;;1.33;;
72369;SDS011;60343;-32.030;115.880;2024-02-26T05:39:57;2.50;;;1.30;;
72369;SDS011;60343;-32.030;115.880;2024-02-26T05:42:33;2.88;;;1.23;;
72369;SDS011;60343;-32.030;115.880;2024-02-26T05:45:16;4.63;;;1.25;;
72369;SDS011;60343;-32.030;115.880;2024-02-26T05:47:51;4.15;;;1.50;;
72369;SDS011;60343;-32.030;115.880;2024-02-26T05:50:27;3.08;;;1.20;;
72369;SDS011;60343;-32.030;115.880;2024-02-26T05:53:02;3.20;;;1.20;;
72369;SDS011;60343;-32.030;115.880;2024-02-26T05:55:37;3.45;;;1.30;;
72369;SDS011;60343;-32.030;115.880;2024-02-26T05:58:13;2.38;;;1.23;;
72369;SDS011;60343;-32.030;115.880;2024-02-26T06:00:54;2.70;;;1.05;;
72369;SDS011;60343;-32.030;115.880;2024-02-26T06:03:29;2.88;;;1.23;;
72369;SDS011;60343;-32.030;115.880;2024-02-26T06:06:05;2.80;;;1.27;;
72369;SDS011;60343;-32.030;115.880;2024-02-26T06:08:41;3.95;;;1.38;;
72369;SDS011;60343;-32.030;115.880;2024-02-26T06:11:11;2.85;;;1.20;;
72369;SDS011;60343;-32.030;115.880;2024-02-26T06:13:49;4.32;;;1.30;;
72369;SDS011;60343;-32.030;115.880;2024-02-26T06:16:30;4.05;;;1.20;;
72369;SDS011;60343;-32.030;115.880;2024-02-26T06:19:06;6.97;;;1.80;;
72369;SDS011;60343;-32.030;115.880;2024-02-26T06:21:41;3.72;;;1.30;;
72369;SDS011;60343;-32.030;115.880;2024-02-26T06:24:17;4.43;;;1.25;;
72369;SDS011;60343;-32.030;115.880;2024-02-26T06:26:52;2.78;;;1.20;;
72369;SDS011;60343;-32.030;115.880;2024-02-26T06:29:28;2.60;;;1.10;;
72369;SDS011;60343;-32.030;115.880;2024-02-26T06:32:09;3.53;;;1.30;;
72369;SDS011;60343;-32.030;115.880;2024-02-26T06:34:45;3.80;;;1.40;;
72369;SDS011;60343;-32.030;115.880;2024-02-26T06:37:20;3.65;;;1.50;;
72369;SDS011;60343;-32.030;115.880;2024-02-26T06:39:55;4.47;;;1.50;;
72369;SDS011;60343;-32.030;115.880;2024-02-26T06:42:32;3.92;;;1.40;;
72369;SDS011;60343;-32.030;115.880;2024-02-26T06:45:10;3.33;;;1.30;;
72369;SDS011;60343;-32.030;115.880;2024-02-26T06:47:51;3.95;;;1.42;;
72369;SDS011;60343;-32.030;115.880;2024-02-26T06:50:26;3.47;;;1.33;;
72369;SDS011;60343;-32.030;115.880;2024-02-26T06:53:02;5.00;;;1.20;;
72369;SDS011;60343;-32.030;115.880;2024-02-26T06:55:37;5.47;;;1.60;;
72369;SDS011;60343;-32.030;115.880;2024-02-26T06:58:13;3.13;;;1.50;;
72369;SDS011;60343;-32.030;115.880;2024-02-26T07:00:48;4.90;;;1.50;;
72369;SDS011;60343;-32.030;115.880;2024-02-26T07:03:29;1.95;;;1.15;;
72369;SDS011;60343;-32.030;115.880;2024-02-26T07:06:04;3.15;;;1.25;;
72369;SDS011;60343;-32.030;115.880;2024-02-26T07:08:40;2.97;;;1.20;;
72369;SDS011;60343;-32.030;115.880;2024-02-26T07:11:15;6.70;;;1.38;;
72369;SDS011;60343;-32.030;115.880;2024-02-26T07:13:50;5.32;;;1.45;;
72369;SDS011;60343;-32.030;115.880;2024-02-26T07:16:27;3.15;;;1.30;;
72369;SDS011;60343;-32.030;115.880;2024-02-26T07:19:08;5.93;;;1.45;;
72369;SDS011;60343;-32.030;115.880;2024-02-26T07:21:43;3.70;;;1.25;;
72369;SDS011;60343;-32.030;115.880;2024-02-26T07:24:18;2.28;;;1.00;;
72369;SDS011;60343;-32.030;115.880;2024-02-26T07:26:54;3.38;;;0.95;;
72369;SDS011;60343;-32.030;115.880;2024-02-26T07:29:30;3.45;;;0.95;;
72369;SDS011;60343;-32.030;115.880;2024-02-26T07:32:06;2.97;;;1.00;;
72369;SDS011;60343;-32.030;115.880;2024-02-26T07:34:47;4.95;;;0.90;;
72369;SDS011;60343;-32.030;115.880;2024-02-26T07:37:23;3.47;;;0.95;;
72369;SDS011;60343;-32.030;115.880;2024-02-26T07:39:58;4.72;;;1.02;;
72369;SDS011;60343;-32.030;115.880;2024-02-26T07:42:34;5.00;;;0.93;;
72369;SDS011;60343;-32.030;115.880;2024-02-26T07:45:09;3.80;;;0.90;;
72369;SDS011;60343;-32.030;115.880;2024-02-26T07:47:46;2.80;;;1.20;;
72369;SDS011;60343;-32.030;115.880;2024-02-26T07:50:27;2.53;;;0.95;;
72369;SDS011;60343;-32.030;115.880;2024-02-26T07:53:02;4.90;;;1.00;;
72369;SDS011;60343;-32.030;115.880;2024-02-26T07:55:37;4.20;;;0.90;;
72369;SDS011;60343;-32.030;115.880;2024-02-26T07:58:13;5.10;;;1.05;;
72369;SDS011;60343;-32.030;115.880;2024-02-26T08:00:49;5.97;;;1.23;;
72369;SDS011;60343;-32.030;115.880;2024-02-26T08:03:26;5.43;;;1.10;;
72369;SDS011;60343;-32.030;115.880;2024-02-26T08:06:08;4.95;;;1.02;;
72369;SDS011;60343;-32.030;115.880;2024-02-26T08:08:43;2.72;;;0.95;;
72369;SDS011;60343;-32.030;115.880;2024-02-26T08:11:19;2.28;;;0.88;;
72369;SDS011;60343;-32.030;115.880;2024-02-26T08:13:55;2.40;;;0.70;;
72369;SDS011;60343;-32.030;115.880;2024-02-26T08:16:30;2.90;;;1.00;;
72369;SDS011;60343;-32.030;115.880;2024-02-26T08:19:06;5.72;;;1.20;;
72369;SDS011;60343;-32.030;115.880;2024-02-26T08:21:48;4.15;;;0.90;;
72369;SDS011;60343;-32.030;115.880;2024-02-26T08:24:23;4.22;;;0.90;;
72369;SDS011;60343;-32.030;115.880;2024-02-26T08:27:00;3.10;;;0.80;;
72369;SDS011;60343;-32.030;115.880;2024-02-26T08:29:35;1.63;;;0.73;;
72369;SDS011;60343;-32.030;115.880;2024-02-26T08:32:10;2.85;;;0.80;;
72369;SDS011;60343;-32.030;115.880;2024-02-26T08:34:46;3.08;;;0.80;;
72369;SDS011;60343;-32.030;115.880;2024-02-26T08:37:27;1.95;;;0.75;;
72369;SDS011;60343;-32.030;115.880;2024-02-26T08:40:02;2.92;;;0.98;;
72369;SDS011;60343;-32.030;115.880;2024-02-26T08:42:38;2.50;;;0.70;;
72369;SDS011;60343;-32.030;115.880;2024-02-26T08:45:14;4.93;;;0.93;;
72369;SDS011;60343;-32.030;115.880;2024-02-26T08:47:50;3.13;;;0.80;;
72369;SDS011;60343;-32.030;115.880;2024-02-26T08:50:25;4.93;;;1.10;;
72369;SDS011;60343;-32.030;115.880;2024-02-26T08:53:07;4.03;;;0.90;;
72369;SDS011;60343;-32.030;115.880;2024-02-26T08:55:42;3.88;;;0.88;;
72369;SDS011;60343;-32.030;115.880;2024-02-26T08:58:17;3.65;;;0.90;;
72369;SDS011;60343;-32.030;115.880;2024-02-26T09:00:53;2.83;;;0.80;;
72369;SDS011;60343;-32.030;115.880;2024-02-26T09:03:28;4.20;;;0.82;;
72369;SDS011;60343;-32.030;115.880;2024-02-26T09:06:03;4.20;;;1.02;;
72369;SDS011;60343;-32.030;115.880;2024-02-26T09:08:44;4.63;;;0.70;;
72369;SDS011;60343;-32.030;115.880;2024-02-26T09:11:20;1.75;;;0.68;;
72369;SDS011;60343;-32.030;115.880;2024-02-26T09:13:55;2.30;;;0.80;;
72369;SDS011;60343;-32.030;115.880;2024-02-26T09:16:30;2.58;;;0.60;;
72369;SDS011;60343;-32.030;115.880;2024-02-26T09:19:07;2.65;;;0.70;;
72369;SDS011;60343;-32.030;115.880;2024-02-26T09:21:43;2.42;;;0.70;;
72369;SDS011;60343;-32.030;115.880;2024-02-26T09:24:24;1.88;;;0.70;;
72369;SDS011;60343;-32.030;115.880;2024-02-26T09:26:59;4.43;;;0.88;;
72369;SDS011;60343;-32.030;115.880;2024-02-26T09:29:36;3.88;;;0.68;;
72369;SDS011;60343;-32.030;115.880;2024-02-26T09:32:11;5.43;;;0.80;;
72369;SDS011;60343;-32.030;115.880;2024-02-26T09:34:46;3.15;;;0.88;;
72369;SDS011;60343;-32.030;115.880;2024-02-26T09:37:22;2.45;;;0.75;;
72369;SDS011;60343;-32.030;115.880;2024-02-26T09:40:03;4.35;;;0.85;;
72369;SDS011;60343;-32.030;115.880;2024-02-26T09:42:41;2.50;;;0.70;;
72369;SDS011;60343;-32.030;115.880;2024-02-26T09:45:19;2.00;;;0.75;;
72369;SDS011;60343;-32.030;115.880;2024-02-26T09:47:58;3.28;;;0.80;;
72369;SDS011;60343;-32.030;115.880;2024-02-26T09:50:36;2.28;;;0.70;;
72369;SDS011;60343;-32.030;115.880;2024-02-26T09:53:12;3.20;;;0.68;;
72369;SDS011;60343;-32.030;115.880;2024-02-26T09:55:53;2.92;;;0.70;;
72369;SDS011;60343;-32.030;115.880;2024-02-26T09:58:29;3.30;;;0.85;;
72369;SDS011;60343;-32.030;115.880;2024-02-26T10:01:07;3.88;;;0.82;;
72369;SDS011;60343;-32.030;115.880;2024-02-26T10:03:48;2.85;;;0.70;;
72369;SDS011;60343;-32.030;115.880;2024-02-26T10:06:29;4.00;;;0.70;;
72369;SDS011;60343;-32.030;115.880;2024-02-26T10:09:04;3.17;;;0.90;;
72369;SDS011;60343;-32.030;115.880;2024-02-26T10:11:48;2.85;;;0.98;;
72369;SDS011;60343;-32.030;115.880;2024-02-26T10:14:25;5.95;;;1.15;;
72369;SDS011;60343;-32.030;115.880;2024-02-26T10:17:01;2.50;;;0.90;;
72369;SDS011;60343;-32.030;115.880;2024-02-26T10:19:38;3.30;;;1.00;;
72369;SDS011;60343;-32.030;115.880;2024-02-26T10:22:13;3.80;;;1.10;;
72369;SDS011;60343;-32.030;115.880;2024-02-26T10:24:48;3.10;;;0.93;;
72369;SDS011;60343;-32.030;115.880;2024-02-26T10:27:30;5.53;;;1.13;;
72369;SDS011;60343;-32.030;115.880;2024-02-26T10:30:05;3.72;;;1.08;;
72369;SDS011;60343;-32.030;115.880;2024-02-26T10:32:52;6.22;;;1.10;;
72369;SDS011;60343;-32.030;115.880;2024-02-26T10:35:28;3.97;;;1.30;;
72369;SDS011;60343;-32.030;115.880;2024-02-26T10:38:07;5.75;;;1.52;;
72369;SDS011;60343;-32.030;115.880;2024-02-26T10:40:46;8.18;;;1.20;;
72369;SDS011;60343;-32.030;115.880;2024-02-26T10:43:28;3.85;;;1.23;;
72369;SDS011;60343;-32.030;115.880;2024-02-26T10:46:04;4.13;;;1.20;;
72369;SDS011;60343;-32.030;115.880;2024-02-26T10:48:40;5.30;;;1.30;;
72369;SDS011;60343;-32.030;115.880;2024-02-26T10:51:25;4.75;;;1.15;;
72369;SDS011;60343;-32.030;115.880;2024-02-26T10:54:01;5.80;;;1.30;;
72369;SDS011;60343;-32.030;115.880;2024-02-26T10:56:38;4.57;;;1.25;;
72369;SDS011;60343;-32.030;115.880;2024-02-26T10:59:22;7.68;;;1.63;;
72369;SDS011;60343;-32.030;115.880;2024-02-26T11:01:57;6.18;;;1.40;;
72369;SDS011;60343;-32.030;115.880;2024-02-26T11:04:34;6.28;;;1.50;;
72369;SDS011;60343;-32.030;115.880;2024-02-26T11:07:10;8.02;;;1.58;;
72369;SDS011;60343;-32.030;115.880;2024-02-26T11:09:46;4.75;;;1.40;;
72369;SDS011;60343;-32.030;115.880;2024-02-26T11:12:23;4.10;;;1.50;;
72369;SDS011;60343;-32.030;115.880;2024-02-26T11:15:08;6.43;;;1.30;;
72369;SDS011;60343;-32.030;115.880;2024-02-26T11:17:43;6.55;;;1.17;;
72369;SDS011;60343;-32.030;115.880;2024-02-26T11:20:20;7.72;;;1.60;;
72369;SDS011;60343;-32.030;115.880;2024-02-26T11:22:57;8.60;;;1.42;;
72369;SDS011;60343;-32.030;115.880;2024-02-26T11:25:32;6.80;;;1.42;;
72369;SDS011;60343;-32.030;115.880;2024-02-26T11:28:08;8.68;;;1.42;;
72369;SDS011;60343;-32.030;115.880;2024-02-26T11:30:53;9.27;;;1.20;;
72369;SDS011;60343;-32.030;115.880;2024-02-26T11:33:31;9.90;;;1.50;;
72369;SDS011;60343;-32.030;115.880;2024-02-26T11:36:08;6.30;;;1.48;;
72369;SDS011;60343;-32.030;115.880;2024-02-26T11:38:44;9.20;;;1.50;;
72369;SDS011;60343;-32.030;115.880;2024-02-26T11:41:21;6.88;;;1.23;;
72369;SDS011;60343;-32.030;115.880;2024-02-26T11:43:58;13.82;;;2.20;;
72369;SDS011;60343;-32.030;115.880;2024-02-26T11:46:40;9.35;;;1.38;;
72369;SDS011;60343;-32.030;115.880;2024-02-26T11:52:06;7.93;;;1.63;;
72369;SDS011;60343;-32.030;115.880;2024-02-26T11:54:45;8.23;;;1.20;;
72369;SDS011;60343;-32.030;115.880;2024-02-26T11:57:22;6.85;;;1.35;;
72369;SDS011;60343;-32.030;115.880;2024-02-26T12:00:10;10.00;;;1.42;;
72369;SDS011;60343;-32.030;115.880;2024-02-26T12:02:55;9.70;;;1.20;;
72369;SDS011;60343;-32.030;115.880;2024-02-26T12:05:34;8.48;;;1.35;;
72369;SDS011;60343;-32.030;115.880;2024-02-26T12:08:09;7.45;;;1.80;;
72369;SDS011;60343;-32.030;115.880;2024-02-26T12:10:47;6.45;;;1.10;;
72369;SDS011;60343;-32.030;115.880;2024-02-26T12:13:29;9.68;;;1.30;;
72369;SDS011;60343;-32.030;115.880;2024-02-26T12:16:05;11.70;;;2.00;;
72369;SDS011;60343;-32.030;115.880;2024-02-26T12:18:46;16.17;;;1.42;;
72369;SDS011;60343;-32.030;115.880;2024-02-26T12:21:22;9.23;;;1.38;;
72369;SDS011;60343;-32.030;115.880;2024-02-26T12:24:12;7.03;;;1.38;;
72369;SDS011;60343;-32.030;115.880;2024-02-26T12:26:49;6.82;;;1.10;;
72369;SDS011;60343;-32.030;115.880;2024-02-26T12:29:25;11.48;;;1.42;;
72369;SDS011;60343;-32.030;115.880;2024-02-26T12:32:00;7.70;;;1.52;;
72369;SDS011;60343;-32.030;115.880;2024-02-26T12:34:43;12.35;;;2.05;;
72369;SDS011;60343;-32.030;115.880;2024-02-26T12:37:18;9.82;;;1.40;;
72369;SDS011;60343;-32.030;115.880;2024-02-26T12:39:54;9.25;;;1.38;;
72369;SDS011;60343;-32.030;115.880;2024-02-26T12:42:30;10.00;;;1.20;;
72369;SDS011;60343;-32.030;115.880;2024-02-26T12:45:07;10.90;;;0.90;;
72369;SDS011;60343;-32.030;115.880;2024-02-26T12:47:43;6.97;;;1.60;;
72369;SDS011;60343;-32.030;115.880;2024-02-26T12:50:25;9.52;;;1.00;;
72369;SDS011;60343;-32.030;115.880;2024-02-26T12:53:00;11.85;;;1.02;;
72369;SDS011;60343;-32.030;115.880;2024-02-26T12:55:36;10.43;;;1.30;;
72369;SDS011;60343;-32.030;115.880;2024-02-26T12:58:11;7.07;;;0.90;;
72369;SDS011;60343;-32.030;115.880;2024-02-26T13:00:50;7.40;;;1.52;;
72369;SDS011;60343;-32.030;115.880;2024-02-26T13:03:26;9.43;;;1.00;;
72369;SDS011;60343;-32.030;115.880;2024-02-26T13:06:08;10.90;;;1.30;;
72369;SDS011;60343;-32.030;115.880;2024-02-26T13:08:45;7.95;;;1.35;;
72369;SDS011;60343;-32.030;115.880;2024-02-26T13:11:21;8.27;;;1.48;;
72369;SDS011;60343;-32.030;115.880;2024-02-26T13:13:57;10.45;;;1.45;;
72369;SDS011;60343;-32.030;115.880;2024-02-26T13:16:32;5.90;;;0.75;;
72369;SDS011;60343;-32.030;115.880;2024-02-26T13:19:09;8.98;;;0.93;;
72369;SDS011;60343;-32.030;115.880;2024-02-26T13:21:51;8.48;;;0.98;;
72369;SDS011;60343;-32.030;115.880;2024-02-26T13:24:27;13.65;;;1.30;;
72369;SDS011;60343;-32.030;115.880;2024-02-26T13:27:02;8.88;;;1.00;;
72369;SDS011;60343;-32.030;115.880;2024-02-26T13:29:38;8.90;;;0.93;;
72369;SDS011;60343;-32.030;115.880;2024-02-26T13:32:13;9.27;;;1.50;;
72369;SDS011;60343;-32.030;115.880;2024-02-26T13:35:04;15.65;;;1.50;;
72369;SDS011;60343;-32.030;115.880;2024-02-26T13:37:46;12.77;;;1.50;;
72369;SDS011;60343;-32.030;115.880;2024-02-26T13:40:22;9.90;;;1.00;;
72369;SDS011;60343;-32.030;115.880;2024-02-26T13:43:00;13.63;;;1.50;;
72369;SDS011;60343;-32.030;115.880;2024-02-26T13:45:36;10.50;;;1.60;;
72369;SDS011;60343;-32.030;115.880;2024-02-26T13:48:12;8.15;;;0.95;;
72369;SDS011;60343;-32.030;115.880;2024-02-26T13:50:48;14.68;;;1.75;;
72369;SDS011;60343;-32.030;115.880;2024-02-26T13:53:30;12.77;;;1.67;;
72369;SDS011;60343;-32.030;115.880;2024-02-26T13:56:05;9.93;;;1.38;;
72369;SDS011;60343;-32.030;115.880;2024-02-26T13:58:43;8.88;;;1.30;;
72369;SDS011;60343;-32.030;115.880;2024-02-26T14:01:19;11.48;;;1.30;;
72369;SDS011;60343;-32.030;115.880;2024-02-26T14:03:56;10.98;;;1.50;;
72369;SDS011;60343;-32.030;115.880;2024-02-26T14:06:33;11.73;;;1.63;;
72369;SDS011;60343;-32.030;115.880;2024-02-26T14:09:14;11.73;;;1.33;;
72369;SDS011;60343;-32.030;115.880;2024-02-26T14:11:52;9.52;;;1.70;;
72369;SDS011;60343;-32.030;115.880;2024-02-26T14:14:30;10.95;;;1.67;;
72369;SDS011;60343;-32.030;115.880;2024-02-26T14:17:06;11.70;;;1.45;;
72369;SDS011;60343;-32.030;115.880;2024-02-26T14:19:42;14.43;;;1.40;;
72369;SDS011;60343;-32.030;115.880;2024-02-26T14:22:17;7.35;;;1.10;;
72369;SDS011;60343;-32.030;115.880;2024-02-26T14:24:58;13.63;;;1.73;;
72369;SDS011;60343;-32.030;115.880;2024-02-26T14:27:35;6.80;;;0.90;;
72369;SDS011;60343;-32.030;115.880;2024-02-26T14:30:11;11.65;;;1.35;;
72369;SDS011;60343;-32.030;115.880;2024-02-26T14:32:46;10.27;;;1.10;;
72369;SDS011;60343;-32.030;115.880;2024-02-26T14:35:22;10.63;;;1.30;;
72369;SDS011;60343;-32.030;115.880;2024-02-26T14:37:57;9.95;;;1.40;;
72369;SDS011;60343;-32.030;115.880;2024-02-26T14:41:07;10.27;;;1.20;;
72369;SDS011;60343;-32.030;115.880;2024-02-26T14:43:43;14.20;;;1.50;;
72369;SDS011;60343;-32.030;115.880;2024-02-26T14:46:18;9.45;;;1.38;;
72369;SDS011;60343;-32.030;115.880;2024-02-26T14:48:56;6.70;;;1.08;;
72369;SDS011;60343;-32.030;115.880;2024-02-26T14:51:34;8.80;;;1.10;;
72369;SDS011;60343;-32.030;115.880;2024-02-26T14:54:10;7.15;;;1.13;;
72369;SDS011;60343;-32.030;115.880;2024-02-26T14:56:54;8.32;;;0.93;;
72369;SDS011;60343;-32.030;115.880;2024-02-26T14:59:30;10.82;;;1.17;;
72369;SDS011;60343;-32.030;115.880;2024-02-26T15:02:07;9.77;;;0.90;;
72369;SDS011;60343;-32.030;115.880;2024-02-26T15:04:42;10.25;;;1.15;;
72369;SDS011;60343;-32.030;115.880;2024-02-26T15:07:18;9.32;;;0.93;;